createdAt,value
2022-08-02T04:00:27.584Z,5.10
2022-08-02T04:11:32.460Z,4.10
2022-08-02T04:22:33.326Z,4.80
2022-08-02T04:33:32.208Z,3.70
2022-08-02T04:44:32.082Z,4.80
2022-08-02T04:55:31.983Z,4.80
2022-08-02T05:06:31.839Z,4.10
2022-08-02T05:17:31.719Z,7.40
2022-08-02T05:28:31.618Z,4.10
2022-08-02T05:39:31.852Z,5.40
2022-08-02T05:50:31.358Z,4.80
2022-08-02T06:01:31.327Z,4.80
2022-08-02T06:12:31.109Z,4.10
2022-08-02T06:23:31.994Z,4.10
2022-08-02T06:34:30.871Z,4.80
2022-08-02T06:45:31.748Z,4.70
2022-08-02T06:56:30.657Z,4.00
2022-08-02T07:07:30.521Z,4.30
2022-08-02T07:18:30.387Z,3.80
2022-08-02T07:29:32.721Z,3.80
2022-08-02T07:40:30.157Z,3.20
2022-08-02T07:51:30.036Z,2.50
2022-08-02T08:02:29.890Z,2.20
2022-08-02T08:13:29.779Z,2.20
2022-08-02T08:24:29.651Z,2.00
2022-08-02T08:35:29.527Z,1.60
2022-08-02T08:46:29.409Z,1.90
2022-08-02T08:57:29.327Z,1.40
2022-08-02T09:08:29.181Z,1.60
2022-08-02T09:19:29.047Z,1.60
2022-08-02T09:30:28.932Z,1.70
2022-08-02T09:41:28.812Z,1.80
2022-08-02T09:52:43.337Z,1.50
2022-08-02T10:03:34.946Z,1.60
2022-08-02T10:14:28.469Z,2.30
2022-08-02T10:25:28.335Z,2.80
2022-08-02T10:36:28.216Z,2.00
2022-08-02T10:47:28.096Z,1.80
2022-08-02T10:58:29.633Z,1.80
2022-08-02T11:09:31.848Z,2.00
2022-08-02T11:20:27.763Z,2.20
2022-08-02T11:21:22.731Z,2.40
2022-08-02T11:22:25.822Z,2.00
2022-08-02T11:33:28.603Z,1.40
2022-08-02T11:34:37.779Z,1.60
2022-08-02T11:35:23.590Z,2.10
2022-08-02T11:46:28.473Z,2.00
2022-08-02T11:57:27.350Z,2.10
2022-08-02T11:58:22.341Z,2.20
2022-08-02T11:59:22.335Z,2.40
2022-08-02T12:10:27.230Z,1.70
2022-08-02T12:21:27.104Z,2.00
2022-08-02T12:32:26.997Z,1.90
2022-08-02T12:43:26.885Z,1.10
2022-08-02T12:54:30.662Z,1.40
2022-08-02T13:05:26.656Z,1.40
2022-08-02T13:06:50.345Z,1.60
2022-08-02T13:07:22.636Z,1.80
2022-08-02T13:18:26.529Z,2.00
2022-08-02T13:19:21.518Z,2.00
2022-08-02T13:20:21.500Z,1.80
2022-08-02T13:31:36.035Z,1.50
2022-08-02T13:32:22.373Z,1.60
2022-08-02T13:33:21.375Z,2.10
2022-08-02T13:44:26.243Z,1.70
2022-08-02T13:45:21.241Z,1.70
2022-08-02T13:46:29.379Z,1.80
2022-08-02T13:57:27.107Z,1.60
2022-08-02T13:58:21.092Z,1.80
2022-08-02T13:59:21.920Z,1.60
2022-08-02T14:10:25.964Z,1.50
2022-08-02T14:11:20.972Z,1.40
2022-08-02T14:12:20.949Z,1.80
2022-08-02T14:23:49.626Z,1.40
2022-08-02T14:24:21.811Z,1.50
2022-08-02T14:25:20.805Z,1.60
2022-08-02T14:36:27.207Z,1.10
2022-08-02T14:37:20.674Z,1.30
2022-08-02T14:38:20.663Z,1.80
2022-08-02T14:49:26.920Z,1.90
2022-08-02T14:50:20.557Z,1.90
2022-08-02T14:51:20.537Z,1.80
2022-08-02T15:02:26.411Z,1.60
2022-08-02T15:03:20.403Z,1.70
2022-08-02T15:04:20.388Z,1.90
2022-08-02T15:15:26.263Z,1.60
2022-08-02T15:16:20.253Z,1.60
2022-08-02T15:17:20.260Z,1.80
2022-08-02T15:28:25.150Z,1.30
2022-08-02T15:29:20.114Z,1.40
2022-08-02T15:30:20.106Z,2.10
2022-08-02T15:41:24.990Z,2.90
2022-08-02T15:42:19.984Z,2.80
2022-08-02T15:43:20.967Z,2.00
2022-08-02T15:54:24.848Z,1.50
2022-08-02T16:05:24.746Z,1.70
2022-08-02T16:16:24.620Z,2.10
2022-08-02T16:27:24.640Z,2.20
2022-08-02T16:38:24.374Z,2.10
2022-08-02T16:50:05.874Z,1.60
2022-08-02T17:00:24.140Z,2.50
2022-08-02T17:11:24.591Z,1.90
2022-08-02T17:22:23.899Z,1.60
2022-08-02T17:33:23.790Z,1.60
2022-08-02T17:44:37.648Z,1.90
2022-08-02T17:55:23.546Z,2.30
2022-08-02T18:06:26.124Z,2.00
2022-08-02T18:17:23.306Z,1.60
2022-08-02T18:28:26.719Z,1.70
2022-08-02T18:39:23.111Z,2.20
2022-08-02T18:50:23.021Z,2.20
2022-08-02T19:01:32.158Z,1.60
2022-08-02T19:12:28.440Z,2.40
2022-08-02T19:23:22.597Z,2.00
2022-08-02T19:34:25.039Z,2.20
2022-08-02T19:45:48.413Z,2.60
2022-08-02T19:56:25.322Z,2.30
2022-08-02T20:07:52.262Z,2.80
2022-08-02T20:18:26.792Z,2.70
2022-08-02T20:29:45.004Z,2.70
2022-08-02T20:40:22.749Z,2.60
2022-08-02T20:51:33.385Z,3.10
